createdAt,value
2022-10-19T06:34:30.305Z,75.85
2022-10-19T06:36:56.948Z,76.50
2022-10-19T06:39:23.540Z,76.87
2022-10-19T06:41:50.521Z,77.19
2022-10-19T06:44:17.219Z,77.36
2022-10-19T06:46:43.890Z,77.60
2022-10-19T06:49:14.338Z,77.83
2022-10-19T06:51:40.998Z,77.99
2022-10-19T06:54:07.992Z,78.37
2022-10-19T06:56:35.084Z,78.19
2022-10-19T06:59:01.713Z,78.35
2022-10-19T07:01:28.442Z,78.59
2022-10-19T07:03:55.607Z,78.50
2022-10-19T07:06:22.577Z,78.65
2022-10-19T07:08:52.165Z,78.78
2022-10-19T07:11:22.735Z,78.71
2022-10-19T07:13:52.689Z,78.96
2022-10-19T07:16:21.788Z,78.71
2022-10-19T07:18:51.771Z,78.82
2022-10-19T07:21:21.529Z,78.78
2022-10-19T07:23:50.663Z,78.82
2022-10-19T07:26:26.485Z,78.69
2022-10-19T07:28:55.231Z,78.81
2022-10-19T07:31:26.542Z,78.80
2022-10-19T07:33:58.264Z,78.92
2022-10-19T07:36:25.533Z,78.81
2022-10-19T07:38:52.890Z,78.78
2022-10-19T07:41:23.494Z,78.63
2022-10-19T07:43:52.779Z,78.60
2022-10-19T07:46:27.934Z,78.44
2022-10-19T07:48:55.480Z,78.42
2022-10-19T07:51:23.269Z,78.41
2022-10-19T07:53:50.280Z,78.20
2022-10-19T07:56:25.351Z,78.01
2022-10-19T07:58:54.190Z,77.90
2022-10-19T08:01:23.699Z,77.84
2022-10-19T08:06:40.282Z,77.39
2022-10-19T08:09:08.024Z,76.90
2022-10-19T08:11:36.411Z,76.88
2022-10-19T08:14:03.795Z,76.69
2022-10-19T08:16:41.518Z,76.42
2022-10-19T08:19:10.681Z,76.23
2022-10-19T08:21:39.251Z,75.80
2022-10-19T08:24:06.849Z,75.55
2022-10-19T08:26:36.713Z,75.26
2022-10-19T08:29:08.650Z,74.59
2022-10-19T08:31:35.683Z,74.42
2022-10-19T08:34:02.784Z,74.15
2022-10-19T08:36:31.424Z,73.83
2022-10-19T08:38:58.672Z,73.50
2022-10-19T08:41:40.790Z,73.28
2022-10-19T08:44:25.933Z,73.16
2022-10-19T08:47:19.751Z,72.79
2022-10-19T08:49:49.393Z,72.22
2022-10-19T08:52:30.752Z,71.86
2022-10-19T08:55:18.144Z,71.72
2022-10-19T08:57:58.313Z,71.55
2022-10-19T09:00:43.508Z,71.24
2022-10-19T09:03:23.064Z,71.15
2022-10-19T09:06:28.833Z,71.20
2022-10-19T09:08:57.255Z,70.84
2022-10-19T09:11:38.822Z,70.10
2022-10-19T09:14:23.368Z,69.81
2022-10-19T09:16:50.290Z,69.62
2022-10-19T09:19:26.344Z,69.23
2022-10-19T09:22:20.124Z,69.10
2022-10-19T09:24:53.057Z,68.77
2022-10-19T09:27:25.924Z,68.72
2022-10-19T09:29:57.761Z,68.37
2022-10-19T09:32:37.203Z,68.45
2022-10-19T09:35:18.512Z,68.32
2022-10-19T09:37:48.636Z,68.16
2022-10-19T09:40:20.622Z,68.15
2022-10-19T09:42:51.180Z,67.94
2022-10-19T09:45:34.064Z,67.81
2022-10-19T09:48:07.181Z,67.80
2022-10-19T09:50:44.087Z,67.80
2022-10-19T09:53:19.667Z,67.92
2022-10-19T09:55:53.600Z,67.90
2022-10-19T09:58:21.124Z,67.82
2022-10-19T10:00:59.567Z,67.72
2022-10-19T10:03:39.386Z,67.54
2022-10-19T10:06:08.483Z,67.53
2022-10-19T10:08:39.141Z,67.61
2022-10-19T10:11:13.231Z,67.23
2022-10-19T10:13:42.802Z,67.18
2022-10-19T10:16:16.679Z,67.22
2022-10-19T10:19:06.088Z,67.04
2022-10-19T10:21:36.564Z,67.00
2022-10-19T10:24:12.037Z,66.89
2022-10-19T10:26:45.470Z,66.80
2022-10-19T10:29:23.299Z,66.59
2022-10-19T10:31:55.139Z,66.62
2022-10-19T10:34:59.959Z,66.40
2022-10-19T10:37:44.834Z,66.66
2022-10-19T10:40:25.153Z,66.38
2022-10-19T10:42:53.981Z,66.39
2022-10-19T10:45:26.715Z,65.95
2022-10-19T10:47:54.081Z,66.00
2022-10-19T10:50:27.862Z,65.85
2022-10-19T10:53:07.997Z,65.85
2022-10-19T10:55:35.143Z,65.90
2022-10-19T10:58:21.242Z,65.89
2022-10-19T11:00:50.461Z,65.67
2022-10-19T11:03:38.015Z,65.74
2022-10-19T11:06:05.009Z,65.77
2022-10-19T11:08:43.762Z,65.65
2022-10-19T11:11:21.734Z,65.63
2022-10-19T11:14:01.238Z,65.57
2022-10-19T11:16:41.847Z,65.35
2022-10-19T11:19:17.826Z,65.32
2022-10-19T11:22:24.960Z,65.33
2022-10-19T11:25:34.054Z,65.32
2022-10-19T11:28:25.407Z,65.08
2022-10-19T11:30:57.876Z,65.08
2022-10-19T11:36:41.255Z,65.13
2022-10-19T11:39:11.116Z,64.75
2022-10-19T11:41:52.818Z,64.76
2022-10-19T11:44:37.200Z,64.75
2022-10-19T11:47:31.676Z,64.78
2022-10-19T11:50:27.170Z,64.74
2022-10-19T11:53:02.509Z,64.49
2022-10-19T11:55:41.008Z,64.29
2022-10-19T11:58:38.056Z,64.04
2022-10-19T12:01:25.067Z,63.69
2022-10-19T12:04:06.866Z,63.30
2022-10-19T12:06:48.174Z,62.91
2022-10-19T12:09:43.114Z,62.30
2022-10-19T12:12:28.091Z,62.17
2022-10-19T12:15:01.752Z,62.16
2022-10-19T12:17:33.208Z,61.86
2022-10-19T12:20:06.554Z,61.85
2022-10-19T12:22:37.417Z,61.76
2022-10-19T12:25:04.971Z,61.72
2022-10-19T12:27:37.764Z,61.86
2022-10-19T12:30:08.657Z,61.61
2022-10-19T12:33:00.847Z,61.21
2022-10-19T12:35:49.418Z,61.05
2022-10-19T12:38:25.145Z,60.66
2022-10-19T12:41:00.394Z,60.47
2022-10-19T12:43:43.880Z,60.35
2022-10-19T12:46:40.298Z,60.17
2022-10-19T12:49:45.284Z,59.82
2022-10-19T12:52:14.158Z,59.70
2022-10-19T12:54:43.510Z,59.09
2022-10-19T12:57:30.526Z,59.12
2022-10-19T13:00:05.393Z,59.07
2022-10-19T13:02:37.134Z,58.85
2022-10-19T13:05:04.860Z,58.40
2022-10-19T13:07:35.399Z,58.48
2022-10-19T13:10:06.916Z,58.32
2022-10-19T13:12:45.222Z,58.29
2022-10-19T13:15:36.380Z,58.29
2022-10-19T13:18:14.358Z,58.25
2022-10-19T13:23:13.234Z,58.20
2022-10-19T13:25:42.125Z,58.27
2022-10-19T13:28:11.645Z,58.08
2022-10-19T13:30:38.411Z,58.11
2022-10-19T13:33:32.548Z,57.98
2022-10-19T13:35:59.599Z,57.93
2022-10-19T13:38:27.720Z,57.69
2022-10-19T13:40:57.059Z,57.73
2022-10-19T13:43:30.898Z,57.84
2022-10-19T13:46:18.811Z,57.52
2022-10-19T13:49:22.818Z,57.70
2022-10-19T13:51:55.261Z,57.42
2022-10-19T13:54:49.629Z,57.46
2022-10-19T13:57:37.977Z,57.23
2022-10-19T14:00:16.653Z,57.22
2022-10-19T14:03:11.846Z,57.31
2022-10-19T14:06:02.079Z,57.11
2022-10-19T14:08:53.345Z,56.77
2022-10-19T14:11:35.456Z,56.74
2022-10-19T14:14:10.830Z,56.56
2022-10-19T14:17:05.265Z,56.50
2022-10-19T14:19:33.476Z,56.44
2022-10-19T14:22:17.130Z,56.33
2022-10-19T14:24:43.754Z,56.15
2022-10-19T14:27:21.327Z,57.07
2022-10-19T14:29:51.043Z,57.73
2022-10-19T14:32:21.291Z,57.25
2022-10-19T14:34:49.028Z,56.96
2022-10-19T14:37:24.305Z,56.72
2022-10-19T14:40:08.161Z,56.65
2022-10-19T14:42:46.091Z,56.60
2022-10-19T14:45:22.271Z,56.17
2022-10-19T14:47:57.389Z,56.27
2022-10-19T14:50:54.449Z,56.66
2022-10-19T14:53:29.157Z,56.49
2022-10-19T14:55:59.732Z,56.45
2022-10-19T14:58:32.032Z,56.49
2022-10-19T15:00:58.843Z,56.67
2022-10-19T15:03:30.563Z,56.82
2022-10-19T15:06:04.316Z,57.04
2022-10-19T15:08:42.696Z,57.45
2022-10-19T15:11:27.155Z,57.81
2022-10-19T15:14:03.932Z,57.76
2022-10-19T15:16:49.289Z,58.33
2022-10-19T15:19:21.812Z,58.79
2022-10-19T15:22:26.965Z,59.04
2022-10-19T15:24:56.085Z,59.28
2022-10-19T15:27:39.455Z,59.64
2022-10-19T15:30:24.983Z,59.94
2022-10-19T15:33:13.317Z,60.18
2022-10-19T15:35:44.129Z,60.19
2022-10-19T15:38:21.196Z,60.56
2022-10-19T15:40:48.580Z,61.24
2022-10-19T15:43:30.530Z,61.28
2022-10-19T15:46:03.638Z,61.70
2022-10-19T15:48:42.787Z,61.53
2022-10-19T15:51:33.884Z,61.66
2022-10-19T15:54:06.667Z,61.86
2022-10-19T15:56:37.174Z,62.09
2022-10-19T15:59:10.682Z,62.28
2022-10-19T16:01:37.473Z,62.67
2022-10-19T16:04:04.360Z,62.64
2022-10-19T16:06:34.032Z,63.06
2022-10-19T16:09:01.233Z,63.19
2022-10-19T16:11:29.977Z,63.29
2022-10-19T16:13:56.625Z,63.64
2022-10-19T16:16:29.580Z,63.63
2022-10-19T16:18:56.748Z,63.82
2022-10-19T16:21:27.138Z,63.82
2022-10-19T16:23:54.095Z,64.62
2022-10-19T16:26:21.585Z,64.60
2022-10-19T16:28:48.869Z,64.76
2022-10-19T16:31:16.695Z,64.86
2022-10-19T16:33:43.437Z,64.94
2022-10-19T16:36:10.856Z,65.28
2022-10-19T16:38:37.536Z,65.42
2022-10-19T16:41:10.302Z,65.63
2022-10-19T16:43:37.359Z,65.67
2022-10-19T16:46:04.987Z,65.82
2022-10-19T16:48:32.073Z,65.87
2022-10-19T16:51:08.002Z,66.03
2022-10-19T16:53:35.496Z,65.90
2022-10-19T16:56:08.094Z,66.46
2022-10-19T16:58:37.158Z,66.46
2022-10-19T17:01:11.603Z,66.82
2022-10-19T17:03:38.415Z,66.84
2022-10-19T17:06:06.569Z,66.96
2022-10-19T17:09:02.711Z,67.33
2022-10-19T17:11:27.537Z,67.36
2022-10-19T17:13:57.427Z,67.32
2022-10-19T17:16:30.397Z,67.61
2022-10-19T17:18:58.777Z,67.49
2022-10-19T17:21:29.459Z,67.65
2022-10-19T17:24:02.320Z,67.66
2022-10-19T17:26:39.881Z,67.80
2022-10-19T17:29:09.872Z,67.80
2022-10-19T17:31:39.019Z,67.97
2022-10-19T17:34:08.594Z,67.76
2022-10-19T17:39:11.883Z,68.18
2022-10-19T17:41:38.580Z,67.83
2022-10-19T17:44:15.534Z,67.87
2022-10-19T17:46:43.166Z,67.88
2022-10-19T17:49:10.510Z,68.02
2022-10-19T17:51:40.254Z,68.11
2022-10-19T17:54:13.164Z,68.07
2022-10-19T17:56:46.090Z,67.84
2022-10-19T17:59:13.969Z,67.73
2022-10-19T18:01:44.602Z,67.97
2022-10-19T18:04:12.653Z,67.80
2022-10-19T18:06:42.605Z,67.67
2022-10-19T18:09:09.710Z,67.62
2022-10-19T18:11:45.195Z,67.54
2022-10-19T18:14:25.657Z,67.46
2022-10-19T18:16:55.154Z,67.55
2022-10-19T18:19:25.718Z,67.39
2022-10-19T18:21:56.848Z,67.52
2022-10-19T18:24:27.719Z,67.50
2022-10-19T18:26:56.778Z,67.34
2022-10-19T18:29:27.270Z,67.16
2022-10-19T18:32:01.453Z,67.17
2022-10-19T18:34:28.748Z,67.26
2022-10-19T18:37:01.555Z,67.19
2022-10-19T18:39:41.571Z,67.22
2022-10-19T18:42:12.860Z,67.13
2022-10-19T18:44:42.712Z,67.20
2022-10-19T18:47:12.556Z,67.25
2022-10-19T18:49:42.149Z,67.29
2022-10-19T18:52:14.095Z,67.17
2022-10-19T18:54:40.736Z,67.30
2022-10-19T18:57:14.094Z,67.29
2022-10-19T18:59:43.326Z,67.28
2022-10-19T19:02:22.403Z,67.22
2022-10-19T19:04:55.836Z,67.15
2022-10-19T19:07:25.709Z,67.20
2022-10-19T19:09:55.655Z,67.20
2022-10-19T19:12:25.847Z,67.02
2022-10-19T19:14:55.968Z,67.29
2022-10-19T19:17:25.681Z,66.96
2022-10-19T19:19:55.684Z,67.06
2022-10-19T19:22:26.233Z,67.25
2022-10-19T19:24:57.500Z,67.24
2022-10-19T19:27:31.414Z,67.28
2022-10-19T19:30:00.755Z,67.38
2022-10-19T19:32:31.047Z,67.30
2022-10-19T19:34:58.382Z,67.37
2022-10-19T19:37:28.151Z,67.34
2022-10-19T19:39:59.327Z,67.21
2022-10-19T19:42:29.109Z,66.74
2022-10-19T19:44:59.032Z,66.92
2022-10-19T19:47:32.341Z,67.06
2022-10-19T19:50:01.293Z,66.91
2022-10-19T19:52:30.769Z,66.82
2022-10-19T19:57:34.079Z,66.51
2022-10-19T20:00:04.432Z,66.71
2022-10-19T20:02:39.567Z,66.77
2022-10-19T20:05:06.669Z,66.78
2022-10-19T20:07:33.512Z,66.81
2022-10-19T20:10:03.832Z,66.81
2022-10-19T20:12:33.556Z,66.96
2022-10-19T20:15:05.049Z,66.82
2022-10-19T20:17:36.216Z,66.87
2022-10-19T20:20:08.556Z,67.03
2022-10-19T20:22:37.004Z,67.05
2022-10-19T20:25:06.850Z,67.09
2022-10-19T20:27:37.958Z,66.96
2022-10-19T20:30:05.590Z,67.17
2022-10-19T20:32:33.039Z,67.32
2022-10-19T20:34:59.987Z,67.37
2022-10-19T20:37:26.796Z,67.29
2022-10-19T20:39:53.455Z,67.12
2022-10-19T20:42:20.361Z,67.34
2022-10-19T20:44:47.260Z,67.24
2022-10-19T20:47:14.183Z,67.18
2022-10-19T20:49:41.095Z,67.05
2022-10-19T20:52:07.771Z,67.16
2022-10-19T20:54:35.775Z,67.14
2022-10-19T20:57:03.233Z,66.86
2022-10-19T20:59:34.478Z,66.90
2022-10-19T21:02:01.249Z,66.57
2022-10-19T21:04:28.541Z,66.30
2022-10-19T21:06:55.427Z,66.22
2022-10-19T21:09:23.712Z,65.78
2022-10-19T21:11:51.962Z,65.55
2022-10-19T21:14:25.270Z,65.47
2022-10-19T21:16:56.870Z,65.28
2022-10-19T21:19:25.631Z,64.91
2022-10-19T21:21:55.512Z,64.88
2022-10-19T21:24:24.819Z,64.92
2022-10-19T21:29:19.265Z,64.85
2022-10-19T21:31:49.175Z,64.74
2022-10-19T21:34:22.450Z,64.62
2022-10-19T21:36:49.731Z,64.36
2022-10-19T21:39:17.691Z,64.13
2022-10-19T21:41:44.480Z,63.58
2022-10-19T21:44:11.538Z,63.80
2022-10-19T21:46:38.295Z,63.83
2022-10-19T21:49:05.106Z,63.40
2022-10-19T21:51:54.118Z,63.02
2022-10-19T21:54:24.993Z,62.70
2022-10-19T21:56:53.402Z,62.54
2022-10-19T21:59:20.332Z,62.47
2022-10-19T22:01:47.233Z,62.26
2022-10-19T22:04:16.281Z,62.05
2022-10-19T22:06:43.692Z,61.84
2022-10-19T22:09:13.646Z,61.91
2022-10-19T22:11:40.314Z,61.70
2022-10-19T22:14:07.041Z,61.90
2022-10-19T22:16:37.040Z,61.92
2022-10-19T22:19:05.358Z,61.81
2022-10-19T22:21:35.693Z,62.17
2022-10-19T22:24:06.691Z,62.11
2022-10-19T22:26:36.493Z,62.05
2022-10-19T22:29:04.651Z,62.26
2022-10-19T22:31:32.293Z,62.24
2022-10-19T22:34:01.486Z,62.43
2022-10-19T22:36:28.372Z,62.42
2022-10-19T22:38:55.249Z,62.54
2022-10-19T22:41:21.966Z,62.75
2022-10-19T22:43:48.562Z,62.77
2022-10-19T22:46:15.215Z,62.87
2022-10-19T22:48:42.066Z,62.83
2022-10-19T22:51:08.729Z,62.78
2022-10-19T22:53:35.546Z,62.91
2022-10-19T22:56:02.587Z,62.50
2022-10-19T22:58:29.205Z,62.47
2022-10-19T23:00:59.826Z,62.31
2022-10-19T23:03:26.493Z,62.21
2022-10-19T23:05:53.142Z,62.12
2022-10-19T23:08:19.771Z,61.92
2022-10-19T23:10:46.912Z,61.82
2022-10-19T23:13:13.612Z,61.56
2022-10-19T23:15:43.163Z,61.24
2022-10-19T23:18:11.150Z,61.30
2022-10-19T23:20:37.914Z,61.37
2022-10-19T23:23:04.841Z,61.25
2022-10-19T23:25:33.911Z,61.27
2022-10-19T23:28:00.546Z,61.15
2022-10-19T23:30:27.293Z,61.14
2022-10-19T23:32:54.246Z,61.28
2022-10-19T23:35:20.798Z,61.39
2022-10-19T23:37:47.957Z,60.98
2022-10-19T23:40:14.851Z,61.09
2022-10-19T23:42:41.537Z,61.00
2022-10-19T23:45:08.608Z,61.08
2022-10-19T23:47:35.445Z,61.06
2022-10-19T23:50:02.327Z,60.82
2022-10-19T23:52:29.144Z,60.83
2022-10-19T23:54:55.915Z,60.64
2022-10-19T23:57:22.477Z,60.58
2022-10-19T23:59:49.126Z,60.36
